createdAt,value
2017-10-19T00:00:18.872Z,99.90
2017-10-19T00:02:47.160Z,99.90
2017-10-19T00:05:15.417Z,99.90
2017-10-19T00:07:43.791Z,99.90
2017-10-19T00:10:11.272Z,99.90
2017-10-19T00:12:38.781Z,99.90
2017-10-19T00:15:06.269Z,99.90
2017-10-19T00:17:33.777Z,99.90
2017-10-19T00:20:07.855Z,99.90
2017-10-19T00:22:35.360Z,99.90
2017-10-19T00:25:02.844Z,99.90
2017-10-19T00:27:30.349Z,99.80
2017-10-19T00:29:58.596Z,99.90
2017-10-19T00:32:26.099Z,99.90
2017-10-19T00:34:54.360Z,99.90
2017-10-19T00:37:21.873Z,99.90
2017-10-19T00:39:50.143Z,99.90
2017-10-19T00:42:17.652Z,99.90
2017-10-19T00:44:45.164Z,99.90
2017-10-19T00:47:12.698Z,99.90
2017-10-19T00:49:40.189Z,99.90
2017-10-19T00:52:07.696Z,99.90
2017-10-19T00:54:35.200Z,99.80
2017-10-19T00:57:02.717Z,99.90
2017-10-19T00:59:30.212Z,99.70
2017-10-19T01:01:58.555Z,99.90
2017-10-19T01:04:26.049Z,99.80
2017-10-19T01:06:53.563Z,99.90
2017-10-19T01:09:21.057Z,99.90
2017-10-19T01:11:48.576Z,99.70
2017-10-19T01:14:16.064Z,99.80
2017-10-19T01:16:44.338Z,99.90
2017-10-19T01:19:11.832Z,99.90
2017-10-19T01:21:39.344Z,99.90
2017-10-19T01:24:06.841Z,99.90
2017-10-19T01:26:34.356Z,99.90
2017-10-19T01:29:01.860Z,99.90
2017-10-19T01:31:29.364Z,99.90
2017-10-19T01:33:57.634Z,99.90
2017-10-19T01:36:39.066Z,99.90
2017-10-19T01:39:07.328Z,99.90
2017-10-19T01:41:34.833Z,99.90
2017-10-19T01:44:02.350Z,99.90
2017-10-19T01:46:29.843Z,99.90
2017-10-19T01:49:01.802Z,99.90
2017-10-19T01:51:29.311Z,99.90
2017-10-19T01:53:57.596Z,99.90
2017-10-19T01:56:25.848Z,99.80
2017-10-19T01:58:53.358Z,99.80
2017-10-19T02:01:20.848Z,99.90
2017-10-19T02:03:48.361Z,99.80
2017-10-19T02:06:15.853Z,99.60
2017-10-19T02:08:44.128Z,99.90
2017-10-19T02:11:11.622Z,99.70
2017-10-19T02:13:39.897Z,99.80
2017-10-19T02:16:07.380Z,99.80
2017-10-19T02:18:35.660Z,99.90
2017-10-19T02:21:03.925Z,99.90
2017-10-19T02:23:31.428Z,99.90
2017-10-19T02:25:59.680Z,99.90
2017-10-19T02:28:27.181Z,99.90
2017-10-19T02:30:55.444Z,99.90
2017-10-19T02:33:22.949Z,99.90
2017-10-19T02:35:51.199Z,99.90
2017-10-19T02:38:18.716Z,99.90
2017-10-19T02:40:46.200Z,99.90
2017-10-19T02:43:13.704Z,99.90
2017-10-19T02:45:41.187Z,99.90
2017-10-19T02:48:08.698Z,99.90
2017-10-19T02:50:36.192Z,99.90
2017-10-19T02:53:03.697Z,99.90
2017-10-19T02:55:31.193Z,99.90
2017-10-19T02:57:58.709Z,99.90
2017-10-19T03:00:26.200Z,99.90
2017-10-19T03:02:53.715Z,99.90
2017-10-19T03:05:21.204Z,99.90
2017-10-19T03:07:48.713Z,99.90
2017-10-19T03:10:16.200Z,99.90
2017-10-19T03:12:43.715Z,99.90
2017-10-19T03:15:11.208Z,99.90
2017-10-19T03:17:38.717Z,99.90
2017-10-19T03:20:06.982Z,99.90
2017-10-19T03:22:34.496Z,99.90
2017-10-19T03:25:01.984Z,99.90
2017-10-19T03:27:29.487Z,99.90
2017-10-19T03:29:57.953Z,99.90
2017-10-19T03:32:25.476Z,99.90
2017-10-19T03:34:53.730Z,99.90
2017-10-19T03:37:21.240Z,99.90
2017-10-19T03:39:49.495Z,99.90
2017-10-19T03:42:17.002Z,99.90
2017-10-19T03:44:45.260Z,99.90
2017-10-19T03:47:12.763Z,99.90
2017-10-19T03:49:41.023Z,99.90
2017-10-19T03:52:08.513Z,99.90
2017-10-19T03:54:36.784Z,99.90
2017-10-19T03:57:04.273Z,99.90
2017-10-19T03:59:32.543Z,99.90
2017-10-19T04:02:00.038Z,99.90
2017-10-19T04:04:27.908Z,99.90
2017-10-19T04:06:56.169Z,99.90
2017-10-19T04:09:23.676Z,99.90
2017-10-19T04:11:51.920Z,99.90
2017-10-19T04:14:19.427Z,99.90
2017-10-19T04:16:47.688Z,99.90
2017-10-19T04:19:15.205Z,99.90
2017-10-19T04:21:42.699Z,99.90
2017-10-19T04:24:10.208Z,99.90
2017-10-19T04:26:37.693Z,99.90
2017-10-19T04:29:05.966Z,99.90
2017-10-19T04:31:33.468Z,99.90
2017-10-19T04:34:00.984Z,99.90
2017-10-19T04:36:28.471Z,99.90
2017-10-19T04:38:55.984Z,99.90
2017-10-19T04:41:23.473Z,99.90
2017-10-19T04:43:50.985Z,99.90
2017-10-19T04:46:18.489Z,99.90
2017-10-19T04:48:46.004Z,99.90
2017-10-19T04:51:13.510Z,99.90
2017-10-19T04:53:41.796Z,99.90
2017-10-19T04:56:09.283Z,99.90
2017-10-19T04:58:37.798Z,99.90
2017-10-19T05:01:05.296Z,99.90
2017-10-19T05:03:32.810Z,99.90
2017-10-19T05:06:01.087Z,99.90
2017-10-19T05:08:28.749Z,99.90
2017-10-19T05:11:00.812Z,99.90
2017-10-19T05:13:28.325Z,99.90
2017-10-19T05:15:56.592Z,99.90
2017-10-19T05:18:24.104Z,99.90
2017-10-19T05:20:51.588Z,99.90
2017-10-19T05:23:19.101Z,99.90
2017-10-19T05:25:46.597Z,99.90
2017-10-19T05:28:14.872Z,99.90
2017-10-19T05:30:42.358Z,99.90
2017-10-19T05:33:10.632Z,99.90
2017-10-19T05:35:40.103Z,99.90
2017-10-19T05:38:07.609Z,99.90
2017-10-19T05:40:35.109Z,99.90
2017-10-19T05:43:03.397Z,99.90
2017-10-19T05:45:30.902Z,99.90
2017-10-19T05:47:58.432Z,99.90
2017-10-19T05:50:26.703Z,99.90
2017-10-19T05:52:54.213Z,99.90
2017-10-19T05:55:21.720Z,99.90
2017-10-19T05:57:49.255Z,99.90
2017-10-19T06:00:16.740Z,99.90
2017-10-19T06:02:44.247Z,99.90
2017-10-19T06:05:11.741Z,99.90
2017-10-19T06:07:39.992Z,99.90
2017-10-19T06:10:07.498Z,99.90
2017-10-19T06:12:35.755Z,99.90
2017-10-19T06:15:03.268Z,99.90
2017-10-19T06:17:33.724Z,99.90
2017-10-19T06:20:01.250Z,99.90
2017-10-19T06:22:28.740Z,99.90
2017-10-19T06:24:57.012Z,99.90
2017-10-19T06:27:24.496Z,99.90
2017-10-19T06:29:52.775Z,99.90
2017-10-19T06:32:21.041Z,99.90
2017-10-19T06:34:48.588Z,99.90
2017-10-19T06:37:16.084Z,99.90
2017-10-19T06:39:43.597Z,99.90
2017-10-19T06:42:11.088Z,99.90
2017-10-19T06:44:39.376Z,99.90
2017-10-19T06:47:11.165Z,99.90
2017-10-19T06:49:38.680Z,99.90
2017-10-19T06:52:06.931Z,99.90
2017-10-19T06:54:34.432Z,99.90
2017-10-19T06:57:01.924Z,99.90
2017-10-19T06:59:29.437Z,99.90
2017-10-19T07:01:56.936Z,99.90
2017-10-19T07:04:24.458Z,99.90
2017-10-19T07:06:51.959Z,99.90
2017-10-19T07:09:19.480Z,99.90
2017-10-19T07:11:46.984Z,99.90
2017-10-19T07:14:14.504Z,99.90
2017-10-19T07:16:42.756Z,99.80
2017-10-19T07:19:10.265Z,99.80
2017-10-19T07:21:38.534Z,98.90
2017-10-19T07:24:29.471Z,98.90
2017-10-19T07:26:57.726Z,98.10
2017-10-19T07:29:25.237Z,98.10
2017-10-19T07:31:53.512Z,98.30
2017-10-19T07:34:21.033Z,98.30
2017-10-19T07:36:48.528Z,98.60
2017-10-19T07:39:16.036Z,98.50
2017-10-19T07:41:44.301Z,99.00
2017-10-19T07:44:11.810Z,99.00
2017-10-19T07:46:39.296Z,98.70
2017-10-19T07:49:06.803Z,98.70
2017-10-19T07:51:34.284Z,98.40
2017-10-19T07:54:08.294Z,98.00
2017-10-19T07:56:35.804Z,97.60
2017-10-19T07:59:03.314Z,97.30
2017-10-19T08:01:30.816Z,97.00
2017-10-19T08:03:58.329Z,96.70
2017-10-19T08:06:25.853Z,96.70
2017-10-19T08:08:53.383Z,96.40
2017-10-19T08:11:20.886Z,96.50
2017-10-19T08:13:48.397Z,96.40
2017-10-19T08:16:15.916Z,96.40
2017-10-19T08:18:43.430Z,96.50
2017-10-19T08:21:11.685Z,96.30
2017-10-19T08:23:39.392Z,96.30
2017-10-19T08:26:07.647Z,96.40
2017-10-19T08:28:35.158Z,96.40
2017-10-19T08:31:03.709Z,96.30
2017-10-19T08:33:31.220Z,96.30
2017-10-19T08:35:58.987Z,96.30
2017-10-19T08:38:27.272Z,96.10
2017-10-19T08:40:55.626Z,96.00
2017-10-19T08:43:23.144Z,95.80
2017-10-19T08:45:51.408Z,94.90
2017-10-19T08:48:18.927Z,94.90
2017-10-19T08:50:46.673Z,95.00
2017-10-19T08:53:14.928Z,95.10
2017-10-19T08:55:42.429Z,95.10
2017-10-19T08:58:12.263Z,95.30
2017-10-19T09:00:40.528Z,95.30
2017-10-19T09:03:08.008Z,95.30
2017-10-19T09:05:35.512Z,95.50
2017-10-19T09:08:03.007Z,95.50
2017-10-19T09:10:30.516Z,94.80
2017-10-19T09:12:58.005Z,94.90
2017-10-19T09:15:26.280Z,94.60
2017-10-19T09:17:54.527Z,94.60
2017-10-19T09:20:22.026Z,94.60
2017-10-19T09:22:49.508Z,94.50
2017-10-19T09:25:17.784Z,94.60
2017-10-19T09:27:45.280Z,94.50
2017-10-19T09:30:12.794Z,94.40
2017-10-19T09:32:40.289Z,93.70
2017-10-19T09:35:07.810Z,93.70
2017-10-19T09:37:35.296Z,93.60
2017-10-19T09:40:02.800Z,93.50
2017-10-19T09:42:30.295Z,93.40
2017-10-19T09:44:59.580Z,93.20
2017-10-19T09:47:27.072Z,93.20
2017-10-19T09:50:03.093Z,93.00
2017-10-19T09:52:30.584Z,93.00
2017-10-19T09:54:58.100Z,93.00
2017-10-19T09:57:25.620Z,93.30
2017-10-19T09:59:53.140Z,93.50
2017-10-19T10:02:20.776Z,92.90
2017-10-19T10:04:48.432Z,92.50
2017-10-19T10:07:15.943Z,92.50
2017-10-19T10:09:48.092Z,92.50
2017-10-19T10:12:15.584Z,92.40
2017-10-19T10:14:43.093Z,92.10
2017-10-19T10:17:10.576Z,91.60
2017-10-19T10:19:38.075Z,91.80
2017-10-19T10:22:05.564Z,91.90
2017-10-19T10:24:33.075Z,92.10
2017-10-19T10:27:24.775Z,91.80
2017-10-19T10:29:52.285Z,92.20
2017-10-19T10:32:19.784Z,92.30
2017-10-19T10:34:47.306Z,92.10
2017-10-19T10:37:14.804Z,91.90
2017-10-19T10:39:42.324Z,92.10
2017-10-19T10:42:09.817Z,91.80
2017-10-19T10:44:38.096Z,91.50
2017-10-19T10:47:06.361Z,91.60
2017-10-19T10:49:33.879Z,91.60
2017-10-19T10:52:01.361Z,91.50
2017-10-19T10:54:28.880Z,91.60
2017-10-19T10:56:56.410Z,91.40
2017-10-19T10:59:23.896Z,90.60
2017-10-19T11:02:11.885Z,91.00
2017-10-19T11:04:40.144Z,91.20
2017-10-19T11:07:13.344Z,91.20
2017-10-19T11:09:40.849Z,91.50
2017-10-19T11:12:09.117Z,91.80
2017-10-19T11:14:36.621Z,91.80
2017-10-19T11:17:04.141Z,91.30
2017-10-19T11:19:31.648Z,91.70
2017-10-19T11:21:59.919Z,91.30
2017-10-19T11:24:27.444Z,91.30
2017-10-19T11:26:54.953Z,91.50
2017-10-19T11:29:22.465Z,91.30
2017-10-19T11:31:49.960Z,91.70
2017-10-19T11:34:17.469Z,91.00
2017-10-19T11:36:44.956Z,91.00
2017-10-19T11:39:12.469Z,90.70
2017-10-19T11:41:40.720Z,91.20
2017-10-19T11:44:08.998Z,91.40
2017-10-19T11:46:37.261Z,90.90
2017-10-19T11:49:04.768Z,90.90
2017-10-19T11:51:33.029Z,91.70
2017-10-19T11:54:00.553Z,91.70
2017-10-19T11:56:28.049Z,91.70
2017-10-19T11:58:55.542Z,91.90
2017-10-19T12:01:23.047Z,92.20
2017-10-19T12:03:51.321Z,91.80
2017-10-19T12:06:19.600Z,91.50
2017-10-19T12:08:47.084Z,91.50
2017-10-19T12:11:15.352Z,91.70
2017-10-19T12:13:54.843Z,91.60
2017-10-19T12:16:22.373Z,91.50
2017-10-19T12:18:49.884Z,91.40
2017-10-19T12:21:17.404Z,91.50
2017-10-19T12:23:44.905Z,91.70
2017-10-19T12:26:13.184Z,91.70
2017-10-19T12:28:40.693Z,91.70
2017-10-19T12:31:08.233Z,92.20
2017-10-19T12:33:36.496Z,92.30
2017-10-19T12:36:04.004Z,92.30
2017-10-19T12:38:31.496Z,92.30
2017-10-19T12:40:59.009Z,92.20
2017-10-19T12:43:26.560Z,92.00
2017-10-19T12:45:54.052Z,92.00
2017-10-19T12:48:32.744Z,91.90
2017-10-19T12:51:00.257Z,91.80
2017-10-19T12:53:27.790Z,91.60
2017-10-19T12:55:55.298Z,91.90
2017-10-19T12:58:22.793Z,92.00
2017-10-19T13:00:51.063Z,91.80
2017-10-19T13:03:18.545Z,91.80
2017-10-19T13:05:46.840Z,92.30
2017-10-19T13:08:15.087Z,92.10
2017-10-19T13:10:43.736Z,92.00
2017-10-19T13:13:11.341Z,92.20
2017-10-19T13:15:38.857Z,92.50
2017-10-19T13:18:06.353Z,92.50
2017-10-19T13:20:33.880Z,92.50
2017-10-19T13:23:01.388Z,92.80
2017-10-19T13:25:29.783Z,92.60
2017-10-19T13:27:57.284Z,92.70
2017-10-19T13:30:24.787Z,92.70
2017-10-19T13:32:52.317Z,92.60
2017-10-19T13:35:19.831Z,92.70
2017-10-19T13:37:47.325Z,92.90
2017-10-19T13:40:14.844Z,92.80
2017-10-19T13:42:42.351Z,92.70
2017-10-19T13:45:10.633Z,92.60
2017-10-19T13:47:38.121Z,92.40
2017-10-19T13:50:06.399Z,92.30
2017-10-19T13:52:33.888Z,92.20
2017-10-19T13:55:02.161Z,92.40
2017-10-19T13:57:29.640Z,92.40
2017-10-19T13:59:57.917Z,92.40
2017-10-19T14:02:26.168Z,92.40
2017-10-19T14:04:53.677Z,92.40
2017-10-19T14:07:21.173Z,92.50
2017-10-19T14:09:48.699Z,92.80
2017-10-19T14:12:16.195Z,92.70
2017-10-19T14:14:44.859Z,92.60
2017-10-19T14:17:12.374Z,92.60
2017-10-19T14:19:39.881Z,92.70
2017-10-19T14:22:07.389Z,92.60
2017-10-19T14:24:34.888Z,92.60
2017-10-19T14:27:13.545Z,92.40
2017-10-19T14:29:41.060Z,92.40
2017-10-19T14:32:08.672Z,92.50
2017-10-19T14:34:36.192Z,92.60
2017-10-19T14:37:03.677Z,92.70
2017-10-19T14:39:31.156Z,92.50
2017-10-19T14:41:59.424Z,92.50
2017-10-19T14:44:26.913Z,92.50
2017-10-19T14:46:55.187Z,92.60
2017-10-19T14:49:22.675Z,92.60
2017-10-19T14:51:50.948Z,92.60
2017-10-19T14:54:18.440Z,92.50
2017-10-19T14:56:46.704Z,92.40
2017-10-19T14:59:14.189Z,92.40
2017-10-19T15:01:42.459Z,92.40
2017-10-19T15:04:09.940Z,92.40
2017-10-19T15:06:37.448Z,92.30
2017-10-19T15:09:04.958Z,92.30
2017-10-19T15:11:32.464Z,92.50
2017-10-19T15:14:00.707Z,92.20
2017-10-19T15:16:28.212Z,92.20
2017-10-19T15:18:56.465Z,90.50
2017-10-19T15:21:23.972Z,90.40
2017-10-19T15:23:52.225Z,90.00
2017-10-19T15:26:19.729Z,90.00
2017-10-19T15:28:47.976Z,89.90
2017-10-19T15:31:15.476Z,89.30
2017-10-19T15:33:42.960Z,87.60
2017-10-19T15:36:11.245Z,87.90
2017-10-19T15:38:40.527Z,89.50
2017-10-19T15:41:08.033Z,89.40
2017-10-19T15:43:36.288Z,88.90
2017-10-19T15:46:03.784Z,88.90
2017-10-19T15:48:31.273Z,88.00
2017-10-19T15:51:11.424Z,88.20
2017-10-19T15:53:39.684Z,88.30
2017-10-19T15:56:07.207Z,88.30
2017-10-19T15:58:34.705Z,88.30
2017-10-19T16:01:02.224Z,87.20
2017-10-19T16:03:30.489Z,88.10
2017-10-19T16:05:58.112Z,87.90
2017-10-19T16:08:25.615Z,88.90
2017-10-19T16:10:53.123Z,88.60
2017-10-19T16:13:20.604Z,88.50
2017-10-19T16:15:48.884Z,89.70
2017-10-19T16:18:17.138Z,90.00
2017-10-19T16:20:44.648Z,90.00
2017-10-19T16:23:12.900Z,90.00
2017-10-19T16:25:40.412Z,90.00
2017-10-19T16:28:08.672Z,90.10
2017-10-19T16:30:36.187Z,90.00
2017-10-19T16:33:03.672Z,90.40
2017-10-19T16:35:31.197Z,91.80
2017-10-19T16:37:59.457Z,94.20
2017-10-19T16:40:26.966Z,94.20
2017-10-19T16:42:55.221Z,95.70
2017-10-19T16:45:22.753Z,95.70
2017-10-19T16:47:50.257Z,96.30
2017-10-19T16:50:28.747Z,96.50
2017-10-19T16:52:56.259Z,96.70
2017-10-19T16:55:23.756Z,96.90
2017-10-19T16:57:51.237Z,96.90
2017-10-19T17:00:19.508Z,96.60
2017-10-19T17:02:47.005Z,96.60
2017-10-19T17:05:15.288Z,96.80
2017-10-19T17:07:43.913Z,96.70
2017-10-19T17:10:12.317Z,96.90
2017-10-19T17:12:39.915Z,96.80
2017-10-19T17:15:08.233Z,96.90
2017-10-19T17:17:36.509Z,97.10
2017-10-19T17:20:04.001Z,97.10
2017-10-19T17:22:31.520Z,97.10
2017-10-19T17:24:59.026Z,97.00
2017-10-19T17:27:27.323Z,97.00
2017-10-19T17:29:55.580Z,96.60
2017-10-19T17:32:23.093Z,96.60
2017-10-19T17:34:51.619Z,96.70
2017-10-19T17:37:19.170Z,96.80
2017-10-19T17:39:46.714Z,96.90
2017-10-19T17:42:15.079Z,96.80
2017-10-19T17:44:52.707Z,96.80
2017-10-19T17:47:20.340Z,96.90
2017-10-19T17:49:47.878Z,96.80
2017-10-19T17:52:16.674Z,96.20
2017-10-19T17:54:44.249Z,96.20
2017-10-19T17:57:11.798Z,96.10
2017-10-19T17:59:40.100Z,96.10
2017-10-19T18:02:08.457Z,96.40
2017-10-19T18:04:35.977Z,96.40
2017-10-19T18:07:03.898Z,96.60
2017-10-19T18:09:31.401Z,96.70
2017-10-19T18:11:59.273Z,96.80
2017-10-19T18:14:27.579Z,97.00
2017-10-19T18:16:59.239Z,96.90
2017-10-19T18:19:26.778Z,96.90
2017-10-19T18:25:00.194Z,97.00
2017-10-19T18:27:27.790Z,96.90
2017-10-19T18:30:01.645Z,97.00
2017-10-19T18:32:29.932Z,96.60
2017-10-19T18:34:58.196Z,96.60
2017-10-19T18:37:25.717Z,96.50
2017-10-19T18:39:53.232Z,96.50
2017-10-19T18:42:20.800Z,96.70
2017-10-19T18:44:48.295Z,97.00
2017-10-19T18:47:16.761Z,96.80
2017-10-19T18:49:47.933Z,96.80
2017-10-19T18:52:15.448Z,96.90
2017-10-19T18:54:47.976Z,96.90
2017-10-19T18:57:15.490Z,97.10
2017-10-19T19:00:01.377Z,97.20
2017-10-19T19:05:23.026Z,97.50
2017-10-19T19:07:50.535Z,97.50
2017-10-19T19:10:18.797Z,97.80
2017-10-19T19:12:46.318Z,97.80
2017-10-19T19:15:13.808Z,98.10
2017-10-19T19:17:41.323Z,98.40
2017-10-19T19:20:09.577Z,98.70
2017-10-19T19:22:37.102Z,98.70
2017-10-19T19:25:04.610Z,98.90
2017-10-19T19:27:32.131Z,98.80
2017-10-19T19:30:00.391Z,99.10
2017-10-19T19:32:27.899Z,99.10
2017-10-19T19:34:55.401Z,99.10
2017-10-19T19:37:22.924Z,99.10
2017-10-19T19:39:51.196Z,98.70
2017-10-19T19:42:18.705Z,98.70
2017-10-19T19:44:46.188Z,98.70
2017-10-19T19:47:13.713Z,98.70
2017-10-19T19:49:41.357Z,98.80
2017-10-19T19:52:14.951Z,98.80
2017-10-19T19:54:43.300Z,98.80
2017-10-19T19:57:11.685Z,98.80
2017-10-19T19:59:40.024Z,98.80
2017-10-19T20:02:40.558Z,98.80
2017-10-19T20:05:08.069Z,98.70
2017-10-19T20:07:36.332Z,98.70
2017-10-19T20:10:03.883Z,98.70
2017-10-19T20:12:31.428Z,98.60
2017-10-19T20:14:59.693Z,98.70
2017-10-19T20:17:27.337Z,98.70
2017-10-19T20:19:58.769Z,98.70
2017-10-19T20:22:26.369Z,99.00
2017-10-19T20:24:53.890Z,98.60
2017-10-19T20:27:28.901Z,98.80
2017-10-19T20:29:59.349Z,98.80
2017-10-19T20:32:28.882Z,98.80
2017-10-19T20:34:56.391Z,98.80
2017-10-19T20:37:23.909Z,98.90
2017-10-19T20:39:51.473Z,98.90
2017-10-19T20:42:19.110Z,98.90
2017-10-19T20:44:46.653Z,98.90
2017-10-19T20:47:17.728Z,98.70
2017-10-19T20:49:46.073Z,98.60
2017-10-19T20:52:20.450Z,98.60
2017-10-19T20:54:48.880Z,98.70
2017-10-19T20:57:16.418Z,98.60
2017-10-19T20:59:43.957Z,98.70
2017-10-19T21:02:12.263Z,98.90
2017-10-19T21:04:39.876Z,98.80
2017-10-19T21:07:07.416Z,98.80
2017-10-19T21:09:50.599Z,98.80
2017-10-19T21:12:18.932Z,99.00
2017-10-19T21:14:47.202Z,99.20
2017-10-19T21:17:16.666Z,99.20
2017-10-19T21:19:44.238Z,99.30
2017-10-19T21:22:11.764Z,99.30
2017-10-19T21:24:39.282Z,99.30
2017-10-19T21:27:10.368Z,99.30
2017-10-19T21:29:38.589Z,99.30
2017-10-19T21:32:07.600Z,99.20
2017-10-19T21:34:35.264Z,99.30
2017-10-19T21:37:03.585Z,99.30
2017-10-19T21:39:31.080Z,99.30
2017-10-19T21:41:58.590Z,99.30
2017-10-19T21:44:26.097Z,99.30
2017-10-19T21:46:53.634Z,99.10
2017-10-19T21:49:21.934Z,99.50
2017-10-19T21:51:50.240Z,99.50
2017-10-19T21:54:19.196Z,99.50
2017-10-19T21:56:47.046Z,99.50
2017-10-19T21:59:14.693Z,99.60
2017-10-19T22:01:42.237Z,99.50
2017-10-19T22:04:09.786Z,99.50
2017-10-19T22:06:37.411Z,99.30
2017-10-19T22:09:05.800Z,99.40
2017-10-19T22:11:33.323Z,99.50
2017-10-19T22:14:00.917Z,99.70
2017-10-19T22:16:29.216Z,99.40
2017-10-19T22:18:57.508Z,99.40
2017-10-19T22:21:27.089Z,99.10
2017-10-19T22:23:54.710Z,99.10
2017-10-19T22:26:22.214Z,99.30
2017-10-19T22:28:49.788Z,99.30
2017-10-19T22:31:17.333Z,99.30
2017-10-19T22:33:44.897Z,99.10
2017-10-19T22:36:12.425Z,98.80
2017-10-19T22:38:40.962Z,99.40
2017-10-19T22:41:08.522Z,99.20
2017-10-19T22:43:36.898Z,99.50
2017-10-19T22:46:04.507Z,99.50
2017-10-19T22:48:32.274Z,99.80
2017-10-19T22:50:59.809Z,99.70
2017-10-19T22:53:27.384Z,99.80
2017-10-19T22:55:54.952Z,99.90
2017-10-19T22:58:25.276Z,99.90
2017-10-19T23:00:52.835Z,99.90
2017-10-19T23:03:20.377Z,99.90
2017-10-19T23:05:47.889Z,99.90
2017-10-19T23:08:15.480Z,99.80
2017-10-19T23:10:43.283Z,99.40
2017-10-19T23:13:10.853Z,99.40
2017-10-19T23:15:42.862Z,99.60
2017-10-19T23:18:11.217Z,99.90
2017-10-19T23:20:39.509Z,99.90
2017-10-19T23:23:07.804Z,99.90
2017-10-19T23:25:35.376Z,99.90
2017-10-19T23:28:02.928Z,99.90
2017-10-19T23:30:31.193Z,99.90
2017-10-19T23:32:59.954Z,99.90
2017-10-19T23:35:28.229Z,99.90
2017-10-19T23:37:55.790Z,99.90
2017-10-19T23:40:23.325Z,99.90
2017-10-19T23:42:50.874Z,99.90
2017-10-19T23:45:18.433Z,99.90
2017-10-19T23:47:45.958Z,99.80
2017-10-19T23:50:14.218Z,99.20
2017-10-19T23:52:41.765Z,99.10
2017-10-19T23:55:09.297Z,99.30
2017-10-19T23:57:39.354Z,99.40
